PWSweather.com
Personal Weather Stations
Station Observations
WISCHPK61
Green Bay Schmitt Park, Green Bay, WI 54311

Green Bay Schmitt ParkGreen Bay, WI 54311

Lat: 44.514277, Lon: -87.935067

Elevation: 735

Station Type: Acu Rite Pro Weather Center model 02032C

http://greenbayweathercam.com

High Low Average
Temperature 37.6°F3.1°C 23.2°F-4.9°C 31.6°F-0.2°C
Dew Point 36.9°F2.7°C 18.8°F-7.3°C 30.1°F-1.1°C
Winds 2.3 mph 3.7 kmh Calm Calm Calm SSECalm SSE
Wind Gusts 4.6 mph7.4 kmh -- --
Humidity 99% 69% 94%
Pressure 29.57 in1001.4 mb 29.23 in989.8 mb -
Precipitation 0.00 in0.0 mm - -
Hour Temp Dew Point Humidity Winds Wind Gusts Pressure Precip Precip Rate Daily Precip Total
12:00 AM 25.2°F-3.8°C 25.0°F-3.9°C 99% Calm Calm -- 29.57 in1001.4 mb - 0.00 in0.0 mm 0.00 in0.0 mm
01:00 AM 24.3°F-4.3°C 24.1°F-4.4°C 99% Calm Calm -- 29.57 in1001.4 mb - 0.00 in0.0 mm 0.00 in0.0 mm
02:00 AM 23.4°F-4.8°C 23.2°F-4.9°C 99% Calm Calm -- 29.57 in1001.4 mb - 0.00 in0.0 mm 0.00 in0.0 mm
03:00 AM 23.9°F-4.5°C 23.7°F-4.6°C 99% Calm Calm -- 29.55 in1000.7 mb - 0.00 in0.0 mm 0.00 in0.0 mm
04:00 AM 23.5°F-4.7°C 23.3°F-4.8°C 99% Calm Calm -- 29.55 in1000.7 mb - 0.00 in0.0 mm 0.00 in0.0 mm
05:00 AM 23.2°F-4.9°C 18.8°F-7.3°C 83% Calm Calm -- 29.54 in1000.3 mb - 0.00 in0.0 mm 0.00 in0.0 mm
06:00 AM 23.2°F-4.9°C 23.0°F-5.0°C 99% Calm Calm -- 29.53 in1000.0 mb - 0.00 in0.0 mm 0.00 in0.0 mm
07:00 AM 25.9°F-3.4°C 25.6°F-3.6°C 99% Calm Calm -- 29.52 in999.7 mb - 0.00 in0.0 mm 0.00 in0.0 mm
08:00 AM 28.5°F-1.9°C 22.2°F-5.4°C 77% Calm Calm -- 29.52 in999.7 mb - 0.00 in0.0 mm 0.00 in0.0 mm
09:00 AM 33.6°F0.9°C 33.3°F0.7°C 99% Calm Calm -- 29.52 in999.7 mb - 0.00 in0.0 mm 0.00 in0.0 mm
10:00 AM 34.2°F1.2°C 33.9°F1.1°C 99% Calm Calm -- 29.51 in999.3 mb - 0.00 in0.0 mm 0.00 in0.0 mm
11:00 AM 36.9°F2.7°C 36.6°F2.6°C 99% Calm Calm -- 29.49 in998.6 mb - 0.00 in0.0 mm 0.00 in0.0 mm
12:00 PM 35.6°F2.0°C 27.5°F-2.5°C 72% Calm Calm -- 29.46 in997.6 mb - 0.00 in0.0 mm 0.00 in0.0 mm
01:00 PM 34.3°F1.3°C 34.0°F1.1°C 99% 1.2 mph SE1.9 kmh SE 1.2 mph1.9 kmh 29.43 in996.6 mb - 0.00 in0.0 mm 0.00 in0.0 mm
02:00 PM 33.6°F0.9°C 33.3°F0.7°C 99% 2.3 mph SSE3.7 kmh SSE 4.6 mph7.4 kmh 29.39 in995.3 mb - 0.00 in0.0 mm 0.00 in0.0 mm
03:00 PM 33.7°F0.9°C 29.7°F-1.3°C 85% Calm Calm -- 29.36 in994.2 mb - 0.00 in0.0 mm 0.00 in0.0 mm
04:00 PM 35.4°F1.9°C 35.1°F1.7°C 99% Calm Calm -- 29.32 in992.9 mb - 0.00 in0.0 mm 0.00 in0.0 mm
05:00 PM 37.2°F2.9°C 36.9°F2.7°C 99% Calm Calm -- 29.29 in991.9 mb - 0.00 in0.0 mm 0.00 in0.0 mm
06:00 PM 37.6°F3.1°C 28.3°F-2.1°C 69% Calm Calm 2.3 mph3.7 kmh 29.27 in991.2 mb - 0.00 in0.0 mm 0.00 in0.0 mm
07:00 PM 37.0°F2.8°C 36.7°F2.6°C 99% Calm Calm -- 29.26 in990.9 mb - 0.00 in0.0 mm 0.00 in0.0 mm
08:00 PM 35.1°F1.7°C 34.8°F1.6°C 99% Calm Calm -- 29.25 in990.5 mb - 0.00 in0.0 mm 0.00 in0.0 mm
09:00 PM 34.7°F1.5°C 34.4°F1.3°C 99% Calm Calm -- 29.25 in990.5 mb - 0.00 in0.0 mm 0.00 in0.0 mm
10:00 PM 35.6°F2.0°C 35.3°F1.8°C 99% Calm Calm -- 29.24 in990.2 mb - 0.00 in0.0 mm 0.00 in0.0 mm
11:00 PM 35.0°F1.7°C 34.7°F1.5°C 99% Calm Calm -- 29.23 in989.8 mb - 0.00 in0.0 mm 0.00 in0.0 mm